Time;durP1;ratioP1;P1;durP2;ratioP2;P2;SDS_P1;SDS_P2;PMS_P1;PMS_P2;Temp;Humidity;BMP_temperature;BMP_pressure;BME280_temperature;BME280_humidity;BME280_pressure;Samples;Min_cycle;Max_cycle;Signal;HPM_P1;HPM_P2
2021/01/06 00:01:47;;;;;;;9.23;7.65;;;;;;;;;;5009160;28;21137;-77
2021/01/06 00:04:13;;;;;;;9.18;7.53;;;;;;;;;;5009112;28;20729;-77
2021/01/06 00:06:39;;;;;;;9.05;7.32;;;;;;;;;;5010664;28;20457;-77
2021/01/06 00:09:06;;;;;;;11.45;7.60;;;;;;;;;;5013323;28;20802;-78
2021/01/06 00:11:36;;;;;;;10.48;8.30;;;;;;;;;;5012955;28;20426;-77
2021/01/06 00:14:05;;;;;;;11.57;7.57;;;;;;;;;;5014113;28;20370;-77
2021/01/06 00:16:31;;;;;;;10.13;7.47;;;;;;;;;;5012787;28;20411;-77
2021/01/06 00:18:57;;;;;;;10.18;7.93;;;;;;;;;;5012448;28;20375;-82
2021/01/06 00:21:23;;;;;;;9.52;7.35;;;;;;;;;;5012844;28;20436;-78
2021/01/06 00:23:49;;;;;;;11.20;7.57;;;;;;;;;;5013856;28;20875;-77
2021/01/06 00:26:15;;;;;;;9.38;7.50;;;;;;;;;;5013764;28;20405;-77
2021/01/06 00:28:42;;;;;;;10.38;7.72;;;;;;;;;;5012239;28;20410;-76
2021/01/06 00:31:08;;;;;;;10.67;7.97;;;;;;;;;;5012326;28;20413;-76
2021/01/06 00:33:35;;;;;;;9.73;7.18;;;;;;;;;;5012675;28;20745;-76
2021/01/06 00:36:09;;;;;;;12.25;8.38;;;;;;;;;;5012328;28;20379;-77
2021/01/06 00:38:36;;;;;;;10.30;7.88;;;;;;;;;;5014197;28;20422;-76
2021/01/06 00:41:02;;;;;;;11.60;7.80;;;;;;;;;;5013508;28;20459;-77
2021/01/06 00:43:28;;;;;;;10.57;8.53;;;;;;;;;;5012582;28;20477;-78
2021/01/06 00:45:55;;;;;;;13.32;8.57;;;;;;;;;;5012332;28;20437;-77
2021/01/06 00:48:21;;;;;;;10.68;8.23;;;;;;;;;;5012405;28;20399;-77
2021/01/06 00:50:47;;;;;;;11.52;8.43;;;;;;;;;;5012181;28;20403;-77
2021/01/06 00:53:18;;;;;;;9.73;7.78;;;;;;;;;;5013732;28;20371;-77
2021/01/06 00:55:45;;;;;;;10.88;8.05;;;;;;;;;;5013506;28;20374;-77
2021/01/06 00:58:11;;;;;;;10.00;8.13;;;;;;;;;;5011992;28;20379;-78
2021/01/06 01:00:37;;;;;;;13.90;8.23;;;;;;;;;;5013771;28;20409;-76
2021/01/06 01:03:04;;;;;;;11.13;8.63;;;;;;;;;;5011857;28;20375;-76
2021/01/06 01:05:31;;;;;;;11.48;8.80;;;;;;;;;;5013196;28;20359;-77
2021/01/06 01:07:58;;;;;;;13.65;9.10;;;;;;;;;;5011911;28;20367;-77
2021/01/06 01:10:29;;;;;;;12.65;8.60;;;;;;;;;;5011733;28;20379;-77
2021/01/06 01:12:55;;;;;;;11.60;8.57;;;;;;;;;;5013037;28;20391;-76
2021/01/06 01:15:29;;;;;;;11.35;8.82;;;;;;;;;;5012965;28;20371;-76
2021/01/06 01:17:55;;;;;;;11.50;8.57;;;;;;;;;;5013084;28;20363;-77
2021/01/06 01:20:22;;;;;;;13.77;9.00;;;;;;;;;;5010701;28;20377;-77
2021/01/06 01:22:48;;;;;;;12.10;8.70;;;;;;;;;;5012807;28;20846;-76
2021/01/06 01:25:16;;;;;;;13.00;8.85;;;;;;;;;;5011497;28;20429;-77
2021/01/06 01:27:42;;;;;;;10.32;9.10;;;;;;;;;;5012730;28;20413;-76
2021/01/06 01:30:29;;;;;;;12.38;9.10;;;;;;;;;;5011573;28;20407;-77
2021/01/06 01:32:55;;;;;;;10.27;8.90;;;;;;;;;;5013072;28;20378;-77
2021/01/06 01:35:28;;;;;;;12.05;8.70;;;;;;;;;;5011613;28;20363;-77
2021/01/06 01:37:55;;;;;;;10.30;8.70;;;;;;;;;;5012540;28;20425;-76
2021/01/06 01:40:24;;;;;;;10.98;8.57;;;;;;;;;;5012413;28;20399;-76
2021/01/06 01:42:56;;;;;;;13.23;8.75;;;;;;;;;;5012618;28;20466;-77
2021/01/06 01:45:24;;;;;;;13.65;8.93;;;;;;;;;;5012679;28;20881;-78
2021/01/06 01:47:54;;;;;;;12.00;8.60;;;;;;;;;;5012674;28;20695;-78
2021/01/06 01:50:21;;;;;;;11.80;8.50;;;;;;;;;;5012078;28;20355;-77
2021/01/06 01:52:50;;;;;;;9.25;8.05;;;;;;;;;;5011479;28;20375;-76
2021/01/06 01:55:20;;;;;;;9.73;7.88;;;;;;;;;;5011421;28;20721;-76
2021/01/06 01:57:55;;;;;;;7.60;6.53;;;;;;;;;;5011063;28;20413;-76
2021/01/06 02:00:22;;;;;;;9.05;6.57;;;;;;;;;;5012299;28;20371;-76
2021/01/06 02:03:00;;;;;;;9.60;6.93;;;;;;;;;;5010702;28;20386;-76
2021/01/06 02:05:35;;;;;;;9.95;7.80;;;;;;;;;;5010886;28;20402;-77
2021/01/06 02:08:20;;;;;;;10.18;8.27;;;;;;;;;;5010614;28;20458;-77
2021/01/06 02:10:56;;;;;;;9.80;7.50;;;;;;;;;;5011870;28;20363;-76
2021/01/06 02:13:43;;;;;;;11.93;7.55;;;;;;;;;;5010476;28;20737;-76
2021/01/06 02:16:19;;;;;;;10.23;7.82;;;;;;;;;;5011038;28;20373;-77
2021/01/06 02:18:45;;;;;;;9.88;7.25;;;;;;;;;;5010654;28;20425;-76
2021/01/06 02:21:13;;;;;;;9.27;6.80;;;;;;;;;;5011942;28;20412;-76
2021/01/06 02:23:41;;;;;;;7.95;6.68;;;;;;;;;;5011761;28;20422;-77
2021/01/06 02:26:07;;;;;;;8.18;6.18;;;;;;;;;;5010787;28;20378;-76
2021/01/06 02:28:34;;;;;;;7.65;5.80;;;;;;;;;;5010212;28;20414;-77
2021/01/06 02:31:00;;;;;;;6.63;5.53;;;;;;;;;;5010850;28;20386;-76
2021/01/06 02:33:26;;;;;;;6.63;5.40;;;;;;;;;;5010253;28;20400;-76
2021/01/06 02:35:53;;;;;;;7.68;5.47;;;;;;;;;;5010766;28;20371;-78
2021/01/06 02:38:20;;;;;;;6.20;5.10;;;;;;;;;;5011806;28;20414;-76
2021/01/06 02:40:46;;;;;;;7.10;5.10;;;;;;;;;;5010364;28;20367;-76
2021/01/06 02:43:13;;;;;;;7.00;4.95;;;;;;;;;;5010486;28;20371;-76
2021/01/06 02:45:39;;;;;;;4.90;4.10;;;;;;;;;;5012109;28;20372;-76
2021/01/06 02:48:05;;;;;;;5.13;3.90;;;;;;;;;;5011764;28;20442;-77
2021/01/06 02:50:31;;;;;;;4.40;3.40;;;;;;;;;;5011036;28;20857;-76
2021/01/06 02:53:06;;;;;;;4.20;3.25;;;;;;;;;;5011362;28;20370;-76
2021/01/06 02:55:33;;;;;;;3.25;2.90;;;;;;;;;;5012824;28;20379;-75
2021/01/06 02:58:02;;;;;;;3.50;3.00;;;;;;;;;;5012587;28;20417;-76
2021/01/06 03:00:28;;;;;;;3.90;3.20;;;;;;;;;;5011764;28;20460;-75
2021/01/06 03:02:54;;;;;;;3.65;3.30;;;;;;;;;;5012487;28;20446;-77
2021/01/06 03:05:25;;;;;;;4.45;3.35;;;;;;;;;;5011563;28;20368;-76
2021/01/06 03:07:52;;;;;;;4.68;3.55;;;;;;;;;;5011340;28;20454;-76
2021/01/06 03:10:19;;;;;;;3.45;3.15;;;;;;;;;;5011024;28;20470;-76
2021/01/06 03:12:47;;;;;;;3.92;3.20;;;;;;;;;;5011367;28;20370;-76
2021/01/06 03:15:17;;;;;;;3.90;3.13;;;;;;;;;;5011508;28;20556;-76
2021/01/06 03:17:43;;;;;;;3.05;2.75;;;;;;;;;;5010039;28;20380;-78
2021/01/06 03:20:11;;;;;;;4.80;3.10;;;;;;;;;;5010875;28;20368;-76
2021/01/06 03:22:39;;;;;;;3.00;2.40;;;;;;;;;;5009917;28;20458;-76
2021/01/06 03:25:07;;;;;;;3.03;2.60;;;;;;;;;;5009916;28;20383;-77
2021/01/06 03:27:34;;;;;;;2.90;2.60;;;;;;;;;;5011023;28;20379;-75
2021/01/06 03:30:00;;;;;;;2.75;2.22;;;;;;;;;;5011000;28;20903;-76
2021/01/06 03:32:33;;;;;;;1.70;1.60;;;;;;;;;;5010997;28;20368;-76
2021/01/06 03:35:06;;;;;;;2.90;1.90;;;;;;;;;;5011014;28;20363;-77
2021/01/06 03:37:35;;;;;;;2.08;1.92;;;;;;;;;;5010802;28;20371;-76
2021/01/06 03:40:06;;;;;;;2.22;2.00;;;;;;;;;;5009444;28;20909;-76
2021/01/06 03:42:32;;;;;;;2.35;2.08;;;;;;;;;;5010286;28;20433;-76
2021/01/06 03:44:59;;;;;;;2.90;2.25;;;;;;;;;;5013584;28;20388;-76
2021/01/06 03:47:27;;;;;;;2.67;2.08;;;;;;;;;;5014947;28;20371;-76
2021/01/06 03:50:02;;;;;;;1.95;1.70;;;;;;;;;;5013344;28;20434;-76
2021/01/06 03:52:38;;;;;;;1.75;1.60;;;;;;;;;;5014497;28;20784;-76
2021/01/06 03:55:07;;;;;;;1.97;1.60;;;;;;;;;;5015107;28;20379;-76
2021/01/06 03:57:33;;;;;;;1.42;1.33;;;;;;;;;;5014858;28;20778;-76
2021/01/06 04:00:00;;;;;;;1.90;1.60;;;;;;;;;;5014413;28;20461;-76
2021/01/06 04:02:36;;;;;;;2.58;1.48;;;;;;;;;;5014771;28;20457;-76
2021/01/06 04:05:02;;;;;;;1.73;1.60;;;;;;;;;;5013715;28;20410;-75
2021/01/06 04:07:33;;;;;;;3.67;1.88;;;;;;;;;;5013439;28;20383;-76
2021/01/06 04:10:05;;;;;;;1.92;1.80;;;;;;;;;;5012988;28;20426;-76
2021/01/06 04:12:31;;;;;;;1.90;1.80;;;;;;;;;;5014354;28;20982;-76
2021/01/06 04:14:57;;;;;;;2.05;1.80;;;;;;;;;;5014432;28;20359;-76
2021/01/06 04:17:37;;;;;;;1.70;1.58;;;;;;;;;;5013066;28;20363;-76
2021/01/06 04:20:15;;;;;;;1.80;1.60;;;;;;;;;;5012799;28;20425;-76
2021/01/06 04:22:41;;;;;;;2.83;1.60;;;;;;;;;;5017719;28;21207;-75
2021/01/06 04:25:19;;;;;;;1.90;1.50;;;;;;;;;;5013173;28;20957;-76
2021/01/06 04:27:47;;;;;;;2.00;1.80;;;;;;;;;;5013085;28;20379;-76
2021/01/06 04:30:19;;;;;;;2.10;1.77;;;;;;;;;;5013861;28;20398;-75
2021/01/06 04:32:45;;;;;;;2.83;2.20;;;;;;;;;;5012674;28;20453;-76
2021/01/06 04:35:13;;;;;;;2.90;1.60;;;;;;;;;;5014740;28;20842;-76
2021/01/06 04:37:39;;;;;;;1.70;1.60;;;;;;;;;;5014164;28;20410;-76
2021/01/06 04:40:05;;;;;;;1.65;1.55;;;;;;;;;;5014128;28;20846;-76
2021/01/06 04:42:32;;;;;;;1.48;1.38;;;;;;;;;;5013066;28;20593;-76
2021/01/06 04:45:07;;;;;;;1.57;1.40;;;;;;;;;;5014167;28;20367;-76
2021/01/06 04:47:52;;;;;;;1.80;1.50;;;;;;;;;;5012869;28;20394;-76
2021/01/06 04:50:41;;;;;;;1.65;1.45;;;;;;;;;;5012351;28;20391;-76
2021/01/06 04:53:25;;;;;;;2.10;1.30;;;;;;;;;;5014108;28;20398;-76
2021/01/06 04:56:17;;;;;;;1.43;1.33;;;;;;;;;;5011408;28;20383;-76
2021/01/06 04:59:02;;;;;;;1.33;1.13;;;;;;;;;;5012673;28;20391;-78
2021/01/06 05:01:47;;;;;;;1.80;0.90;;;;;;;;;;5013925;28;20452;-76
2021/01/06 05:04:31;;;;;;;1.35;0.90;;;;;;;;;;5014010;28;20370;-76
2021/01/06 05:07:09;;;;;;;1.35;0.90;;;;;;;;;;5013510;28;20367;-75
2021/01/06 05:09:41;;;;;;;1.77;1.10;;;;;;;;;;5013625;28;20864;-76
2021/01/06 05:12:16;;;;;;;1.50;1.00;;;;;;;;;;5012518;28;20430;-76
2021/01/06 05:14:47;;;;;;;1.42;1.25;;;;;;;;;;5012439;28;20483;-76
2021/01/06 05:17:13;;;;;;;1.10;1.00;;;;;;;;;;5012081;28;20411;-76
2021/01/06 05:19:40;;;;;;;0.93;0.93;;;;;;;;;;5013304;28;20405;-76
2021/01/06 05:22:06;;;;;;;1.40;1.30;;;;;;;;;;5013592;28;20367;-75
2021/01/06 05:24:38;;;;;;;1.40;1.30;;;;;;;;;;5013609;28;20445;-77
2021/01/06 05:27:07;;;;;;;1.40;1.13;;;;;;;;;;5012263;28;20901;-76
2021/01/06 05:29:33;;;;;;;1.70;1.30;;;;;;;;;;5012142;28;20406;-76
2021/01/06 05:31:59;;;;;;;1.83;1.30;;;;;;;;;;5013713;28;20363;-76
2021/01/06 05:34:27;;;;;;;1.30;1.20;;;;;;;;;;5013229;28;20383;-75
2021/01/06 05:36:53;;;;;;;1.35;1.25;;;;;;;;;;5013191;28;20367;-76
2021/01/06 05:39:23;;;;;;;1.45;1.30;;;;;;;;;;5011639;28;20382;-77
2021/01/06 05:41:53;;;;;;;1.33;1.17;;;;;;;;;;5013202;28;20421;-77
2021/01/06 05:44:19;;;;;;;1.20;1.02;;;;;;;;;;5011856;28;20375;-79
2021/01/06 05:46:46;;;;;;;1.58;1.20;;;;;;;;;;5013367;28;20362;-77
2021/01/06 05:49:18;;;;;;;2.15;1.10;;;;;;;;;;5012894;28;20407;-79
2021/01/06 05:51:51;;;;;;;1.83;1.30;;;;;;;;;;5013223;28;20368;-80
2021/01/06 05:54:40;;;;;;;1.50;1.30;;;;;;;;;;5013376;28;20359;-78
2021/01/06 05:57:20;;;;;;;1.73;1.30;;;;;;;;;;5002549;28;20501;-77
2021/01/06 05:59:49;;;;;;;1.38;1.20;;;;;;;;;;5012265;28;20394;-75
2021/01/06 06:02:34;;;;;;;1.75;1.50;;;;;;;;;;5013035;28;20367;-79
2021/01/06 06:05:18;;;;;;;2.08;1.30;;;;;;;;;;5009928;28;20390;-79
2021/01/06 06:08:03;;;;;;;1.70;1.20;;;;;;;;;;4993839;28;20412;-79
2021/01/06 06:10:29;;;;;;;1.30;1.20;;;;;;;;;;4995297;28;20552;-78
2021/01/06 06:13:08;;;;;;;1.77;1.23;;;;;;;;;;5012526;28;20458;-80
2021/01/06 06:15:55;;;;;;;1.10;1.00;;;;;;;;;;5008514;28;20486;-79
2021/01/06 06:18:28;;;;;;;1.90;1.20;;;;;;;;;;5010842;28;20383;-78
2021/01/06 06:20:57;;;;;;;1.42;1.10;;;;;;;;;;5011507;28;20466;-77
2021/01/06 06:23:23;;;;;;;1.65;1.40;;;;;;;;;;5012835;28;20375;-77
2021/01/06 06:25:56;;;;;;;1.27;1.17;;;;;;;;;;5012573;28;20718;-80
2021/01/06 06:28:54;;;;;;;2.38;1.20;;;;;;;;;;5011945;28;20433;-79
2021/01/06 06:31:24;;;;;;;1.30;1.20;;;;;;;;;;4957784;28;20379;-78
2021/01/06 06:33:54;;;;;;;1.30;1.20;;;;;;;;;;5012031;28;20838;-77
2021/01/06 06:36:22;;;;;;;1.48;1.38;;;;;;;;;;5012308;28;20359;-77
2021/01/06 06:38:48;;;;;;;1.80;1.13;;;;;;;;;;5012463;28;20375;-79
2021/01/06 06:41:23;;;;;;;1.63;1.20;;;;;;;;;;5011580;28;20774;-80
2021/01/06 06:43:51;;;;;;;1.23;1.13;;;;;;;;;;5012944;28;20378;-79
2021/01/06 06:46:36;;;;;;;1.30;1.20;;;;;;;;;;5011406;28;20371;-78
2021/01/06 06:49:11;;;;;;;2.00;1.20;;;;;;;;;;5012104;28;20407;-77
2021/01/06 06:51:41;;;;;;;1.50;1.40;;;;;;;;;;5016500;28;20708;-78
2021/01/06 06:54:07;;;;;;;1.50;1.40;;;;;;;;;;5011913;28;20392;-79
2021/01/06 06:56:36;;;;;;;1.90;1.50;;;;;;;;;;5014072;28;20372;-78
2021/01/06 06:59:18;;;;;;;1.60;1.40;;;;;;;;;;5013187;28;20800;-76
2021/01/06 07:01:46;;;;;;;1.42;1.33;;;;;;;;;;5013070;28;20382;-79
2021/01/06 07:04:28;;;;;;;1.88;1.40;;;;;;;;;;5013203;28;20788;-80
2021/01/06 07:06:55;;;;;;;1.40;1.30;;;;;;;;;;5012680;28;20367;-77
2021/01/06 07:09:26;;;;;;;1.98;1.35;;;;;;;;;;5012592;28;20443;-75
2021/01/06 07:11:58;;;;;;;1.98;1.60;;;;;;;;;;5015303;28;20876;-74
2021/01/06 07:14:27;;;;;;;1.80;1.70;;;;;;;;;;5006157;28;20365;-75
2021/01/06 07:16:53;;;;;;;1.70;1.60;;;;;;;;;;4992566;28;20376;-75
2021/01/06 07:19:24;;;;;;;2.92;1.67;;;;;;;;;;4992569;28;20365;-76
2021/01/06 07:21:53;;;;;;;2.05;1.63;;;;;;;;;;5004095;28;20399;-75
2021/01/06 07:24:20;;;;;;;1.70;1.35;;;;;;;;;;5012014;28;20363;-75
2021/01/06 07:26:54;;;;;;;1.70;1.60;;;;;;;;;;5012026;28;20367;-75
2021/01/06 07:29:21;;;;;;;2.42;1.73;;;;;;;;;;4995179;28;20917;-77
2021/01/06 07:31:59;;;;;;;2.08;1.60;;;;;;;;;;4996126;28;20381;-79
2021/01/06 07:34:37;;;;;;;1.73;1.63;;;;;;;;;;4999598;28;20733;-75
2021/01/06 07:37:04;;;;;;;2.00;1.80;;;;;;;;;;4990788;28;20854;-78
2021/01/06 07:39:31;;;;;;;2.00;1.80;;;;;;;;;;4998952;28;20463;-76
2021/01/06 07:42:02;;;;;;;1.75;1.60;;;;;;;;;;5007018;28;20356;-79
2021/01/06 07:44:31;;;;;;;1.52;1.42;;;;;;;;;;5009166;28;20439;-75
2021/01/06 07:47:03;;;;;;;1.73;1.50;;;;;;;;;;5011000;28;20437;-76
2021/01/06 07:49:41;;;;;;;2.10;1.63;;;;;;;;;;5009696;28;20404;-77
2021/01/06 07:52:19;;;;;;;1.75;1.65;;;;;;;;;;5011231;28;20375;-76
2021/01/06 07:55:08;;;;;;;1.70;1.50;;;;;;;;;;5010170;28;20379;-75
2021/01/06 07:58:07;;;;;;;1.98;1.52;;;;;;;;;;5010597;28;20371;-77
2021/01/06 08:00:36;;;;;;;2.03;1.90;;;;;;;;;;4967399;28;20410;-75
2021/01/06 08:03:14;;;;;;;4.55;4.10;;;;;;;;;;5010609;28;20439;-76
2021/01/06 08:05:40;;;;;;;3.67;3.35;;;;;;;;;;5012159;28;20830;-75
2021/01/06 08:08:11;;;;;;;3.15;2.85;;;;;;;;;;5010851;28;20443;-77
2021/01/06 08:10:38;;;;;;;3.70;3.33;;;;;;;;;;5011246;28;20367;-76
2021/01/06 08:13:26;;;;;;;5.43;4.93;;;;;;;;;;5009624;28;20390;-82
2021/01/06 08:16:10;;;;;;;1.92;1.83;;;;;;;;;;5007689;28;20367;-76
2021/01/06 08:18:42;;;;;;;1.77;1.65;;;;;;;;;;4989747;28;20388;-79
2021/01/06 08:21:11;;;;;;;2.88;2.58;;;;;;;;;;4990550;28;20372;-77
2021/01/06 08:23:47;;;;;;;3.10;2.05;;;;;;;;;;5004191;28;20388;-75
2021/01/06 08:26:16;;;;;;;2.00;1.80;;;;;;;;;;5012253;28;20437;-77
2021/01/06 08:28:42;;;;;;;2.55;2.35;;;;;;;;;;5009328;28;20411;-78
2021/01/06 08:31:15;;;;;;;2.00;1.90;;;;;;;;;;5014756;28;20726;-79
2021/01/06 08:33:52;;;;;;;2.00;1.83;;;;;;;;;;5014338;28;20462;-77
2021/01/06 08:36:37;;;;;;;2.40;1.85;;;;;;;;;;5014895;28;20730;-79
2021/01/06 08:39:14;;;;;;;2.22;2.03;;;;;;;;;;5016448;28;20429;-75
2021/01/06 08:41:40;;;;;;;1.80;1.70;;;;;;;;;;5014600;28;20368;-79
2021/01/06 08:44:07;;;;;;;2.10;1.95;;;;;;;;;;5015041;28;20390;-74
2021/01/06 08:46:34;;;;;;;2.38;2.17;;;;;;;;;;5014142;28;20367;-78
2021/01/06 08:49:30;;;;;;;2.67;2.47;;;;;;;;;;5015407;28;20399;-77
2021/01/06 08:52:01;;;;;;;2.60;2.40;;;;;;;;;;4977901;28;20729;-76
2021/01/06 08:54:32;;;;;;;2.50;2.30;;;;;;;;;;5013767;28;20383;-80
2021/01/06 08:57:18;;;;;;;2.80;2.42;;;;;;;;;;5015071;28;20386;-81
2021/01/06 08:59:44;;;;;;;2.30;2.10;;;;;;;;;;5014971;28;20496;-75
2021/01/06 09:02:34;;;;;;;2.80;2.40;;;;;;;;;;5014681;28;20403;-75
2021/01/06 09:05:00;;;;;;;2.70;2.10;;;;;;;;;;4966707;28;20422;-80
2021/01/06 09:07:27;;;;;;;2.20;2.00;;;;;;;;;;4994378;28;20424;-76
2021/01/06 09:10:13;;;;;;;2.30;2.10;;;;;;;;;;5012402;28;20469;-80
2021/01/06 09:12:39;;;;;;;2.50;1.95;;;;;;;;;;5014013;28;20695;-79
2021/01/06 09:15:06;;;;;;;1.77;1.67;;;;;;;;;;5012269;28;20406;-77
2021/01/06 09:17:32;;;;;;;1.80;1.70;;;;;;;;;;5016205;28;20414;-77
2021/01/06 09:20:15;;;;;;;1.90;1.70;;;;;;;;;;5013547;28;20382;-77
2021/01/06 09:22:41;;;;;;;2.03;1.83;;;;;;;;;;5013445;28;20367;-76
2021/01/06 09:25:08;;;;;;;2.20;2.00;;;;;;;;;;5011978;28;20379;-76
2021/01/06 09:27:41;;;;;;;1.85;1.75;;;;;;;;;;4992112;28;20407;-76
2021/01/06 09:30:18;;;;;;;1.80;1.70;;;;;;;;;;5020544;28;20426;-78
2021/01/06 09:32:46;;;;;;;1.95;1.80;;;;;;;;;;5004729;28;20385;-78
2021/01/06 09:35:15;;;;;;;2.08;1.90;;;;;;;;;;5008467;28;20873;-79
2021/01/06 09:37:43;;;;;;;2.25;1.80;;;;;;;;;;5013336;28;20382;-81
2021/01/06 09:40:14;;;;;;;2.15;1.95;;;;;;;;;;5013240;28;20846;-79
2021/01/06 09:42:41;;;;;;;1.85;1.75;;;;;;;;;;5011839;28;20721;-78
2021/01/06 09:45:13;;;;;;;2.00;1.90;;;;;;;;;;5013069;28;20366;-78
2021/01/06 09:47:39;;;;;;;1.83;1.73;;;;;;;;;;5012562;28;20919;-76
2021/01/06 09:50:20;;;;;;;2.17;1.98;;;;;;;;;;5011819;28;20400;-74
2021/01/06 09:52:48;;;;;;;4.55;1.90;;;;;;;;;;5012211;28;20375;-76
2021/01/06 09:55:15;;;;;;;1.90;1.80;;;;;;;;;;5012456;28;20378;-76
2021/01/06 09:57:41;;;;;;;2.55;1.85;;;;;;;;;;5011612;28;20451;-76
2021/01/06 10:00:11;;;;;;;1.90;1.80;;;;;;;;;;5011924;28;20379;-76
2021/01/06 10:02:37;;;;;;;2.10;1.90;;;;;;;;;;5011809;28;20857;-76
2021/01/06 10:05:12;;;;;;;2.33;2.13;;;;;;;;;;5012545;28;20398;-76
2021/01/06 10:07:52;;;;;;;2.65;2.25;;;;;;;;;;5013034;28;20375;-76
2021/01/06 10:10:21;;;;;;;2.33;2.13;;;;;;;;;;5011935;28;20434;-77
2021/01/06 10:13:13;;;;;;;2.17;2.00;;;;;;;;;;5010767;28;20877;-76
2021/01/06 10:15:39;;;;;;;2.25;2.05;;;;;;;;;;4981877;28;20386;-76
2021/01/06 10:18:15;;;;;;;2.00;1.90;;;;;;;;;;5012540;28;20363;-77
2021/01/06 10:20:48;;;;;;;2.45;2.03;;;;;;;;;;5012132;28;20367;-76
2021/01/06 10:23:16;;;;;;;1.80;1.70;;;;;;;;;;5011389;28;20458;-75
2021/01/06 10:25:54;;;;;;;1.90;1.80;;;;;;;;;;5012384;28;20374;-75
2021/01/06 10:28:23;;;;;;;2.40;1.60;;;;;;;;;;5011963;28;21115;-76
2021/01/06 10:31:03;;;;;;;2.10;1.90;;;;;;;;;;5011873;28;20367;-76
2021/01/06 10:33:31;;;;;;;2.08;1.98;;;;;;;;;;5011694;28;20395;-77
2021/01/06 10:36:05;;;;;;;2.33;2.13;;;;;;;;;;5012023;28;20401;-76
2021/01/06 10:38:44;;;;;;;2.28;2.08;;;;;;;;;;5011972;28;20371;-77
2021/01/06 10:41:12;;;;;;;2.20;2.10;;;;;;;;;;5011602;28;20715;-77
2021/01/06 10:43:46;;;;;;;2.30;2.10;;;;;;;;;;5011852;28;20454;-76
2021/01/06 10:46:32;;;;;;;2.10;1.90;;;;;;;;;;5010821;28;20866;-76
2021/01/06 10:48:58;;;;;;;2.25;2.05;;;;;;;;;;4997896;28;20901;-78
2021/01/06 10:51:43;;;;;;;2.27;2.17;;;;;;;;;;5010938;28;20411;-76
2021/01/06 10:54:09;;;;;;;2.15;2.05;;;;;;;;;;5011673;28;20367;-76
2021/01/06 10:56:35;;;;;;;2.25;2.00;;;;;;;;;;5012552;28;20429;-76
2021/01/06 10:59:05;;;;;;;2.25;2.05;;;;;;;;;;5011748;28;20857;-76
2021/01/06 11:01:50;;;;;;;2.13;1.90;;;;;;;;;;5011796;28;20367;-75
2021/01/06 11:04:16;;;;;;;2.10;2.00;;;;;;;;;;5011898;28;20381;-76
2021/01/06 11:06:58;;;;;;;2.47;2.10;;;;;;;;;;5012737;28;20394;-77
2021/01/06 11:09:30;;;;;;;2.53;2.20;;;;;;;;;;5013149;28;20480;-76
2021/01/06 11:12:15;;;;;;;2.35;2.20;;;;;;;;;;5012775;28;20367;-76
2021/01/06 11:14:58;;;;;;;2.03;1.83;;;;;;;;;;5012321;28;20461;-79
2021/01/06 11:17:32;;;;;;;2.13;1.92;;;;;;;;;;4997668;28;20470;-76
2021/01/06 11:20:01;;;;;;;1.73;1.63;;;;;;;;;;5011269;28;20386;-78
2021/01/06 11:22:32;;;;;;;2.00;1.80;;;;;;;;;;5012955;28;20371;-76
2021/01/06 11:25:01;;;;;;;1.90;1.80;;;;;;;;;;5012981;28;20367;-77
2021/01/06 11:27:42;;;;;;;2.00;1.90;;;;;;;;;;4995222;28;20392;-77
2021/01/06 11:30:21;;;;;;;1.90;1.80;;;;;;;;;;5010059;28;20403;-78
2021/01/06 11:32:48;;;;;;;2.15;1.98;;;;;;;;;;5007602;28;20466;-80
2021/01/06 11:35:20;;;;;;;2.47;2.28;;;;;;;;;;5013072;28;20469;-83
2021/01/06 11:37:46;;;;;;;2.35;2.13;;;;;;;;;;4992373;28;20384;-76
2021/01/06 11:40:32;;;;;;;2.30;2.15;;;;;;;;;;4995380;28;20393;-78
2021/01/06 11:43:01;;;;;;;3.00;2.80;;;;;;;;;;4966606;28;20376;-78
2021/01/06 11:45:35;;;;;;;2.80;2.60;;;;;;;;;;5007010;28;20455;-81
2021/01/06 11:48:18;;;;;;;3.10;2.80;;;;;;;;;;5001979;28;20416;-85
2021/01/06 11:50:47;;;;;;;1.83;1.73;;;;;;;;;;4993745;28;20871;-78
2021/01/06 11:53:27;;;;;;;1.85;1.75;;;;;;;;;;5009668;28;20431;-77
2021/01/06 11:55:59;;;;;;;1.77;1.67;;;;;;;;;;4995276;28;20407;-81
2021/01/06 12:01:29;;;;;;;1.75;1.65;;;;;;;;;;5014850;28;20356;-85
2021/01/06 12:04:02;;;;;;;2.25;1.70;;;;;;;;;;5015110;28;20371;-80
2021/01/06 12:06:38;;;;;;;2.03;1.83;;;;;;;;;;5018502;28;20387;-76
2021/01/06 12:09:26;;;;;;;2.28;2.08;;;;;;;;;;5017293;28;20610;-78
2021/01/06 12:15:02;;;;;;;1.58;1.48;;;;;;;;;;4999148;28;20901;-78
2021/01/06 12:17:41;;;;;;;1.92;1.73;;;;;;;;;;4996890;28;20392;-83
2021/01/06 12:20:22;;;;;;;2.90;2.70;;;;;;;;;;5002796;28;20923;-79
2021/01/06 12:25:57;;;;;;;2.30;2.10;;;;;;;;;;5016427;28;20454;-78
2021/01/06 12:28:42;;;;;;;1.75;1.42;;;;;;;;;;5016750;28;20433;-77
2021/01/06 12:31:19;;;;;;;1.48;1.27;;;;;;;;;;5014812;28;20450;-77
2021/01/06 12:37:08;;;;;;;2.28;1.70;;;;;;;;;;5016957;28;20825;-79
2021/01/06 12:39:42;;;;;;;2.40;1.30;;;;;;;;;;5015512;28;20372;-81
2021/01/06 12:42:14;;;;;;;1.77;1.60;;;;;;;;;;5015208;28;20376;-76
2021/01/06 12:44:43;;;;;;;1.50;1.40;;;;;;;;;;5014642;28;20478;-75
2021/01/06 12:47:29;;;;;;;2.20;2.00;;;;;;;;;;5016083;28;20758;-76
2021/01/06 12:50:14;;;;;;;1.73;1.60;;;;;;;;;;5015618;28;20757;-76
2021/01/06 12:52:43;;;;;;;3.65;2.10;;;;;;;;;;5008961;28;20440;-90
2021/01/06 12:55:11;;;;;;;3.15;2.33;;;;;;;;;;5001134;28;20412;-73
2021/01/06 12:57:44;;;;;;;2.22;1.90;;;;;;;;;;5013655;28;20367;-78
2021/01/06 13:00:20;;;;;;;3.15;2.30;;;;;;;;;;4994454;28;20376;-75
2021/01/06 13:02:47;;;;;;;1.55;1.38;;;;;;;;;;4994735;28;20459;-76
2021/01/06 13:05:20;;;;;;;1.58;1.02;;;;;;;;;;4994930;28;20488;-81
2021/01/06 13:07:53;;;;;;;1.65;1.45;;;;;;;;;;4994894;28;20413;-76
2021/01/06 13:10:20;;;;;;;1.40;1.30;;;;;;;;;;4995424;28;20400;-80
2021/01/06 13:12:48;;;;;;;1.73;1.20;;;;;;;;;;4995042;28;20385;-77
2021/01/06 13:15:22;;;;;;;1.42;1.33;;;;;;;;;;4995307;28;20444;-76
2021/01/06 13:17:57;;;;;;;1.45;1.20;;;;;;;;;;4996674;28;20405;-77
2021/01/06 13:20:38;;;;;;;2.22;1.40;;;;;;;;;;5003548;28;20383;-80
2021/01/06 13:23:23;;;;;;;1.67;1.53;;;;;;;;;;5015063;28;20399;-76
2021/01/06 13:25:57;;;;;;;1.50;1.30;;;;;;;;;;4997455;28;20366;-78
2021/01/06 13:28:29;;;;;;;2.00;1.58;;;;;;;;;;5007340;28;20419;-78
2021/01/06 13:31:22;;;;;;;2.05;1.80;;;;;;;;;;5004171;28;20398;-76
2021/01/06 13:34:05;;;;;;;2.00;1.80;;;;;;;;;;4997698;28;20820;-80
2021/01/06 13:36:38;;;;;;;1.90;1.80;;;;;;;;;;4996383;28;20365;-75
2021/01/06 13:39:25;;;;;;;2.30;2.10;;;;;;;;;;4995874;28;20423;-77
2021/01/06 13:41:52;;;;;;;2.22;2.03;;;;;;;;;;4978465;28;20404;-80
2021/01/06 13:44:18;;;;;;;2.35;2.00;;;;;;;;;;4996393;28;20392;-80
2021/01/06 13:46:52;;;;;;;2.50;2.30;;;;;;;;;;4997831;28;20848;-83
2021/01/06 13:49:28;;;;;;;2.60;2.40;;;;;;;;;;4999754;28;20405;-81
2021/01/06 13:52:13;;;;;;;2.50;2.30;;;;;;;;;;4994966;28;20360;-76
2021/01/06 13:54:45;;;;;;;2.80;2.10;;;;;;;;;;4993479;28;20369;-79
2021/01/06 13:57:29;;;;;;;2.67;2.40;;;;;;;;;;4994248;28;20856;-79
2021/01/06 14:00:01;;;;;;;2.38;2.10;;;;;;;;;;4994489;28;20372;-76
2021/01/06 14:02:34;;;;;;;2.20;1.98;;;;;;;;;;4993587;28;20373;-76
2021/01/06 14:05:01;;;;;;;2.60;1.90;;;;;;;;;;4993368;28;20369;-80
2021/01/06 14:07:33;;;;;;;2.13;1.93;;;;;;;;;;4994630;28;20372;-77
2021/01/06 14:10:12;;;;;;;2.28;2.00;;;;;;;;;;4995400;28;20435;-82
2021/01/06 14:12:56;;;;;;;1.73;1.63;;;;;;;;;;4994786;28;20404;-78
2021/01/06 14:15:29;;;;;;;2.80;2.05;;;;;;;;;;4993068;28;20420;-76
2021/01/06 14:18:07;;;;;;;2.40;1.90;;;;;;;;;;5009840;28;20375;-82
2021/01/06 14:20:45;;;;;;;2.72;1.90;;;;;;;;;;5013318;28;20377;-79
2021/01/06 14:23:11;;;;;;;3.33;2.20;;;;;;;;;;5011707;28;20375;-76
2021/01/06 14:25:50;;;;;;;2.50;2.10;;;;;;;;;;5013777;28;20394;-76
2021/01/06 14:28:19;;;;;;;2.22;2.03;;;;;;;;;;5010922;28;20905;-78
2021/01/06 14:30:50;;;;;;;2.97;2.17;;;;;;;;;;4992313;28;20427;-74
2021/01/06 14:33:35;;;;;;;3.00;2.55;;;;;;;;;;4992870;28;20871;-81
2021/01/06 14:36:04;;;;;;;2.72;2.53;;;;;;;;;;4993842;28;20380;-77
2021/01/06 14:38:36;;;;;;;2.33;2.13;;;;;;;;;;5007142;28;21213;-76
2021/01/06 14:41:02;;;;;;;2.50;2.30;;;;;;;;;;5011423;28;20470;-79
2021/01/06 14:43:41;;;;;;;3.58;3.15;;;;;;;;;;5011287;28;20506;-75
2021/01/06 14:46:13;;;;;;;3.42;3.10;;;;;;;;;;5013482;28;20363;-80
2021/01/06 14:48:58;;;;;;;3.00;2.70;;;;;;;;;;5013143;28;20406;-79
2021/01/06 14:51:24;;;;;;;5.70;4.57;;;;;;;;;;5013385;28;20385;-80
2021/01/06 14:53:59;;;;;;;5.82;5.22;;;;;;;;;;5014022;28;20847;-80
2021/01/06 14:56:30;;;;;;;4.60;4.20;;;;;;;;;;5005897;28;20421;-75
2021/01/06 14:59:12;;;;;;;2.95;2.65;;;;;;;;;;4996855;28;20442;-78
2021/01/06 15:01:58;;;;;;;2.70;2.50;;;;;;;;;;4998110;28;20402;-78
2021/01/06 15:04:29;;;;;;;2.75;2.50;;;;;;;;;;4999208;28;20513;-80
2021/01/06 15:06:58;;;;;;;3.08;2.78;;;;;;;;;;5012455;28;20379;-80
2021/01/06 15:09:27;;;;;;;2.50;2.30;;;;;;;;;;5008319;28;20749;-79
2021/01/06 15:12:00;;;;;;;2.85;2.28;;;;;;;;;;5007793;28;20851;-79
2021/01/06 15:14:27;;;;;;;2.50;2.30;;;;;;;;;;5012548;28;20375;-80
2021/01/06 15:16:57;;;;;;;2.70;2.50;;;;;;;;;;5012530;28;20369;-78
2021/01/06 15:19:28;;;;;;;2.67;2.47;;;;;;;;;;5012886;28;20378;-79
2021/01/06 15:21:58;;;;;;;2.60;2.40;;;;;;;;;;5012379;28;20371;-79
2021/01/06 15:24:29;;;;;;;2.95;2.70;;;;;;;;;;5012461;28;20918;-79